Port Hope, Minnesota
Current Conditions -  °F | °C
As of 2:13 PM on Thursday 23 Oct 2014 (Local Time) from KBJI Reporting Station
Clear Clear  
Wind Chill: 66°   Ceiling: Unl
Heat Index: 66°   Visibility: 10mi
Dew Point: 37°   Wind: 12mph
Humidity: 34%   Direction: 230°SW
Pressure: 29.88"   Gusts: NA
Location:  47.5271°N, 94.7611°W
Report Text: KBJI 231913Z AUTO 23010KT 10SM CLR 19/03 A2988 RMK AO2 T01900026
Loading
Personal Weather Stations






























Interactive Weather Map
Tropical Storm Tracking
New forecast layout! Learn more

10-Day Weather Forecast

Advertisements
Track Severe Weather on mobile